createdAt,value
2022-09-01T17:48:15.149Z,26.33
2022-09-01T17:50:59.489Z,26.54
2022-09-01T17:53:50.600Z,26.69
2022-09-01T17:57:11.022Z,26.78
2022-09-01T17:59:44.393Z,26.72
2022-09-01T18:02:46.529Z,26.69
2022-09-01T18:05:19.723Z,26.60
2022-09-01T18:08:07.068Z,26.51
2022-09-01T18:10:50.227Z,26.43
2022-09-01T18:13:51.452Z,26.35
2022-09-01T18:16:21.214Z,26.28
2022-09-01T18:18:51.041Z,26.21
2022-09-01T18:21:26.252Z,26.15
2022-09-01T18:24:01.535Z,26.10
2022-09-01T18:26:35.244Z,26.05
2022-09-01T18:29:05.036Z,25.99
2022-09-01T18:31:35.803Z,25.95
2022-09-01T18:34:03.075Z,25.89
2022-09-01T18:36:49.868Z,25.85
2022-09-01T18:39:20.117Z,25.78
2022-09-01T18:41:55.893Z,25.71
2022-09-01T18:44:50.919Z,25.64
2022-09-01T18:47:29.888Z,25.57
2022-09-01T18:50:27.882Z,25.56
2022-09-01T18:53:13.332Z,25.51
2022-09-01T18:56:08.385Z,25.49
2022-09-01T18:58:51.714Z,25.45
2022-09-01T19:02:00.482Z,25.42
2022-09-01T19:04:42.452Z,25.35
2022-09-01T19:07:15.787Z,25.30
2022-09-01T19:09:47.853Z,25.25
2022-09-01T19:12:35.977Z,25.23
2022-09-01T19:15:15.985Z,25.18
2022-09-01T19:18:05.078Z,25.15
2022-09-01T19:21:09.675Z,25.10
2022-09-01T19:24:09.744Z,25.04
2022-09-01T19:26:46.249Z,24.98
2022-09-01T19:29:17.477Z,24.94
2022-09-01T19:31:49.301Z,24.92
2022-09-01T19:34:20.237Z,24.89
2022-09-01T19:36:56.160Z,24.86
2022-09-01T19:39:45.015Z,24.88
2022-09-01T19:42:16.334Z,24.82
2022-09-01T19:45:07.530Z,24.78
2022-09-01T19:47:55.808Z,24.76
2022-09-01T19:50:31.270Z,24.70
2022-09-01T19:53:23.667Z,24.66
2022-09-01T19:55:50.839Z,24.64
2022-09-01T19:58:27.497Z,24.60
2022-09-01T20:00:58.420Z,24.55
2022-09-01T20:03:50.447Z,24.57
2022-09-01T20:06:34.136Z,24.51
2022-09-01T20:09:22.624Z,24.48
2022-09-01T20:12:22.375Z,24.49
2022-09-01T20:15:06.834Z,24.42
2022-09-01T20:17:49.976Z,24.39
2022-09-01T20:20:24.461Z,24.37
2022-09-01T20:23:27.394Z,24.38
2022-09-01T20:26:25.395Z,24.35
2022-09-01T20:29:17.386Z,24.32
2022-09-01T20:31:51.338Z,24.25
2022-09-01T20:34:25.132Z,24.25
2022-09-01T20:37:06.097Z,24.23
2022-09-01T20:40:08.128Z,24.24
2022-09-01T20:42:59.275Z,24.23
2022-09-01T20:45:28.424Z,24.22
2022-09-01T20:48:02.062Z,24.22
2022-09-01T20:50:50.648Z,24.21
2022-09-01T20:53:32.961Z,24.23
2022-09-01T20:56:07.485Z,24.21
2022-09-01T20:58:40.286Z,24.20
2022-09-01T21:01:19.474Z,24.19
2022-09-01T21:04:08.156Z,24.18
2022-09-01T21:06:44.185Z,24.16
2022-09-01T21:09:29.019Z,24.14
2022-09-01T21:12:21.830Z,24.16
2022-09-01T21:14:49.208Z,24.13
2022-09-01T21:17:25.906Z,24.12
2022-09-01T21:20:11.941Z,24.11
2022-09-01T21:22:39.228Z,24.09
2022-09-01T21:25:06.731Z,24.09
2022-09-01T21:28:01.104Z,24.09
2022-09-01T21:30:33.952Z,24.06
2022-09-01T21:33:02.872Z,24.03
2022-09-01T21:35:30.215Z,24.03
2022-09-01T21:37:57.413Z,24.00
2022-09-01T21:40:26.433Z,23.97
2022-09-01T21:43:05.037Z,23.95
2022-09-01T21:45:35.376Z,23.94
2022-09-01T21:48:03.082Z,23.93
2022-09-01T21:50:30.319Z,23.90
2022-09-01T21:52:57.557Z,23.88
2022-09-01T21:55:24.960Z,23.84
2022-09-01T21:57:52.885Z,23.80
2022-09-01T22:00:24.042Z,23.78
2022-09-01T22:02:52.311Z,23.77
2022-09-01T22:05:20.785Z,23.75
2022-09-01T22:07:48.175Z,23.72
2022-09-01T22:10:17.994Z,23.69
2022-09-01T22:12:47.616Z,23.69
2022-09-01T22:15:18.208Z,23.67
2022-09-01T22:17:46.862Z,23.65
2022-09-01T22:20:18.507Z,23.64
2022-09-01T22:22:46.420Z,23.63
2022-09-01T22:25:17.499Z,23.60
2022-09-01T22:27:44.775Z,23.58
2022-09-01T22:30:13.250Z,23.56
2022-09-01T22:32:45.173Z,23.53
2022-09-01T22:35:13.968Z,23.52
2022-09-01T22:37:41.378Z,23.50
2022-09-01T22:40:09.531Z,23.48
2022-09-01T22:42:36.935Z,23.47
2022-09-01T22:45:06.093Z,23.46
2022-09-01T22:47:35.275Z,23.46
2022-09-01T22:50:08.837Z,23.45
2022-09-01T22:52:37.117Z,23.45
2022-09-01T22:55:06.180Z,23.45
2022-09-01T22:57:34.494Z,23.47
2022-09-01T23:00:02.189Z,23.45
2022-09-01T23:02:30.235Z,23.43
2022-09-01T23:04:57.521Z,23.40
2022-09-01T23:07:24.702Z,23.37
2022-09-01T23:09:51.891Z,23.34
2022-09-01T23:12:19.079Z,23.30
2022-09-01T23:14:46.278Z,23.29
2022-09-01T23:17:13.451Z,23.28
2022-09-01T23:19:40.652Z,23.28
2022-09-01T23:22:08.460Z,23.26
2022-09-01T23:24:35.610Z,23.25
2022-09-01T23:27:03.424Z,23.23
2022-09-01T23:29:30.897Z,23.22
2022-09-01T23:31:58.112Z,23.20
2022-09-01T23:34:25.516Z,23.19
2022-09-01T23:36:52.719Z,23.17
2022-09-01T23:39:19.907Z,23.14
2022-09-01T23:41:47.385Z,23.13
2022-09-01T23:44:15.890Z,23.12
2022-09-01T23:46:45.574Z,23.10
2022-09-01T23:49:15.815Z,23.09
2022-09-01T23:51:44.223Z,23.09
2022-09-01T23:54:11.853Z,23.09
2022-09-01T23:56:39.466Z,23.11
2022-09-01T23:59:07.464Z,23.13
